Tiempo atmosférico en la estación meteorológica de La Riba de Escalote, Soria (1042 m.)



Fecha
DESCASC
Temp. máxima en grados centígrados (hora)
DESCASC
Temp. mínima en grados centígrados (hora)
DESCASC
Temp. media en grados centígrados
DESCASC
Racha de viento máxima en m/sg (hora)
DESCASC
Velocidad máxima media en intervalos de 10 minutos(hora)
DESCASC
Precipitaciones diarias en mm
DESCASC
Precipitaciones de 00:00 a 06:00 en mm
DESCASC
Precipitaciones de 06:00 a 12:00 en mm
DESCASC
Precipitaciones de 12:00 a 18:00 en mm
DESCASC
Precipitaciones de 18:00 a 24:00 en mm
DESCASC
29-10-2020 16.4 (16:10) 6.9 (06:30) 11.6 8.61 (20:10) 6.67 (19:00) 0 0 0 0 0
28-10-2020 14.2 (13:50) 6.7 (05:20) 10.4 9.72 (09:10) 7.78 (09:20) 0 0 0 0 0
27-10-2020 11.1 (15:00) 4.4 (00:00) 7.8 14.17 (18:50) 10.56 (12:50) 0 0 0 0 0
26-10-2020 7.6 (16:20) 3.8 (00:00) 5.7 16.11 (01:40) 12.5 (01:30) 0 0 0 0 0
25-10-2020 10.5 (14:50) 5.2 (00:00) 7.8 19.72 (11:10) 13.89 (11:10) 3.8 0 0 0.4 3.4
24-10-2020 10.9 (14:40) 2.6 (00:00) 6.7 13.33 (19:30) 10.56 (19:40) 0 0 0 0 0
23-10-2020 11.9 (17:30) 5.4 (00:00) 8.6 12.22 (15:20) 8.61 (14:00) 3 2.6 0 0.4 0
22-10-2020 13.5 (13:30) 9 (00:00) 11.3 13.89 (21:00) 9.44 (21:10) 5.4 0.8 0 2.4 2.2
21-10-2020 13.2 (16:10) 10.7 (00:00) 11.9 31.94 (01:50) 19.44 (01:50) 5.2 4.4 0 0.8 0
20-10-2020 16 (18:00) 10.5 (00:00) 13.3 21.94 (22:50) 14.17 (23:30) 8.2 0 0.8 2.6 4.8
19-10-2020 19.5 (16:10) 5.1 (00:00) 12.3 16.67 (12:00) 13.06 (12:00) 0 0 0 0 0
18-10-2020 18.5 (16:30) -0.6 (-00:0) 8.9 5.28 (19:10) 5 (19:20) 0 0 0 0 0
17-10-2020 15.3 (17:40) -1.1 (-00:0) 7.1 10 (13:20) 7.22 (13:30) 0 0 0 0 0
16-10-2020 11.5 (18:00) -0.6 (-00:0) 5.4 8.89 (16:10) 5.83 (16:10) 0 0 0 0 0
15-10-2020 10.5 (15:40) 2.1 (00:00) 6.3 13.06 (15:50) 8.61 (11:30) 0 0 0 0 0
14-10-2020 11.6 (16:20) 3.9 (00:00) 7.8 13.89 (14:00) 8.89 (16:10) 0 0 0 0 0
13-10-2020 15.1 (15:20) 6.7 (00:00) 10.9 9.17 (12:30) 7.22 (12:40) 0 0 0 0 0
12-10-2020 13.8 (16:10) 3.9 (00:00) 8.9 13.89 (17:40) 9.17 (17:40) 0 0 0 0 0
11-10-2020 13.6 (16:00) 2.7 (00:00) 8.2 13.33 (17:30) 8.61 (20:50) 0 0 0 0 0
10-10-2020 17.6 (14:40) 6 (00:00) 11.8 10 (17:10) 8.06 (18:30) 0 0 0 0 0
09-10-2020 23.4 (16:50) 7.4 (00:00) 15.4 8.89 (16:20) 5.28 (17:30) 0 0 0 0 0
08-10-2020 23.1 (16:10) 6.1 (00:00) 14.6 9.44 (13:40) 6.94 (13:50) 0 0 0 0 0
07-10-2020 21.2 (17:10) 11.4 (00:00) 16.3 11.94 (07:20) 7.5 (07:20) 0 0 0 0 0
06-10-2020 18.5 (17:10) 7.7 (00:00) 13.1 11.94 (15:20) 8.61 (15:10) 0 0 0 0 0
05-10-2020 14.1 (16:20) 4.7 (00:00) 9.4 13.33 (11:30) 10 (11:40) 0 0 0 0 0
04-10-2020 13.8 (16:20) 6.5 (00:00) 10.2 21.11 (11:40) 14.72 (11:40) 0 0 0 0 0
03-10-2020 11.3 (18:50) 4.3 (00:00) 7.8 17.78 (04:00) 12.78 (04:00) 0 0 0 0 0
02-10-2020 14 (01:40) 5.7 (00:00) 9.8 25 (16:10) 16.94 (15:20) 19.2 1 17.4 0.8 0
01-10-2020 17 (17:00) 10.2 (08:40) 13.6 13.33 (14:10) 9.72 (14:00) 0 0 0 0 0

Gráficas

Temp. máximas Temp. mínimas Temp. medias Precipitaciones Rachas de viento máximas Velocidades máximas media en intervalos de 10 minutos

Datos horarios

Fecha y hora oficial Temperatura (ºC) Velocidad del viento (km/h) Dirección del viento Racha (km/h) Dirección de racha Precipitación (mm) Presión (hPa) Tendencia (hPa) Humedad (%)
2020-10-30 23:00:00 6.2 0 Calma 6 Sudeste 0 -- -- 90
2020-10-30 22:00:00 7.1 0 Calma 5 Oeste 0 -- -- 89
2020-10-30 21:00:00 8.6 0 Calma 3 Oeste 0 -- -- 82
2020-10-30 20:00:00 10.7 2 Este 5 Noroeste 0 -- -- 77
2020-10-30 19:00:00 13.3 0 Calma 6 Oeste 0 -- -- 68
2020-10-30 18:00:00 16 3 Noroeste 14 Nordeste 0 -- -- 59
2020-10-30 17:00:00 17.1 6 Norte 13 Norte 0 -- -- 55
2020-10-30 16:00:00 18 5 Noroeste 15 Norte 0 -- -- 52
2020-10-30 15:00:00 17.6 5 Norte 19 Norte 0 -- -- 55
2020-10-30 14:00:00 17.1 8 Norte 15 Nordeste 0 -- -- 58
2020-10-30 13:00:00 15.9 8 Norte 12 Nordeste 0 -- -- 63
2020-10-30 12:00:00 14.6 4 Norte 9 Nordeste 0 -- -- 71
2020-10-30 11:00:00 11.1 3 Este 5 Este 0 -- -- 89
2020-10-30 10:00:00 6.5 0 Calma 5 Sudeste 0 -- -- 100
2020-10-30 09:00:00 1.9 0 Calma 4 Sudeste 0 -- -- 98
2020-10-30 08:00:00 1 0 Calma 5 Sudeste 0 -- -- 99
2020-10-30 07:00:00 0.9 3 Sudeste 6 Sudeste 0 -- -- 98
2020-10-30 06:00:00 1.4 0 Calma 4 Sudeste 0 -- -- 98
2020-10-30 05:00:00 2.4 0 Calma 5 Este 0 -- -- 97
2020-10-30 04:00:00 3 0 Calma 7 Sudeste 0 -- -- 97
2020-10-30 03:00:00 3 0 Calma 5 Sudeste 0 -- -- 97
2020-10-30 02:00:00 4 0 Calma 9 Sur 0 -- -- 95
2020-10-30 01:00:00 5.2 8 Sudeste 14 Sudeste 0 -- -- 93
2020-10-30 00:00:00 7.5 2 Oeste 14 Sudoeste 0 -- -- 88
2020-10-29 23:00:00 7.4 4 Sudoeste 9 Sudeste 0 -- -- 92
2020-10-29 22:00:00 7.7 6 Sur 14 Este 0 -- -- 91
2020-10-29 21:00:00 8.6 9 Este 31 Sudoeste 0 -- -- 86
2020-10-29 20:00:00 10.4 24 Sudoeste 30 Sudoeste 0 -- -- 84
2020-10-29 19:00:00 11.2 24 Sur 30 Sur 0 -- -- 78
2020-10-29 18:00:00 12.9 20 Sur 26 Sur 0 -- -- 72
2020-10-29 17:00:00 15.7 8 Sur 19 Sur 0 -- -- 62
2020-10-29 16:00:00 16.2 14 Sur 23 Sudoeste 0 -- -- 60
2020-10-29 15:00:00 15.9 12 Sudoeste 22 Sur 0 -- -- 61
2020-10-29 14:00:00 14.5 15 Sur 21 Sur 0 -- -- 67
2020-10-29 13:00:00 13 13 Sur 22 Sur 0 -- -- 76
2020-10-29 12:00:00 11.4 10 Sur 20 Sur 0 -- -- 80
2020-10-29 11:00:00 11.6 10 Sur 18 Sur 0 -- -- 81
2020-10-29 10:00:00 9.4 14 Sur 21 Sur 0 -- -- 91
2020-10-29 09:00:00 8.2 9 Sur 15 Sudoeste 0 -- -- 99
2020-10-29 08:00:00 7.1 0 Calma 5 Noroeste 0 -- -- 99
2020-10-29 07:00:00 7 4 Sudeste 5 Sudeste 0 -- -- 99
2020-10-29 06:00:00 7.2 0 Calma 4 Oeste 0 -- -- 99
2020-10-29 05:00:00 7.1 2 Sudeste 4 Este 0 -- -- 99
2020-10-29 04:00:00 7.3 0 Calma 14 Sudoeste 0 -- -- 98
2020-10-29 03:00:00 7.9 5 Oeste 19 Sudoeste 0 -- -- 97
2020-10-29 02:00:00 8.8 7 Sudoeste 12 Sudoeste 0 -- -- 97
2020-10-29 01:00:00 8.9 5 Oeste 12 Sudoeste 0 -- -- 97
2020-10-29 00:00:00 9.1 7 Oeste 23 Sudoeste 0 -- -- 97
2020-10-28 23:00:00 9.2 2 Este 19 Sudoeste 0 -- -- 97
2020-10-28 22:00:00 9.1 5 Sudoeste 9 Sudoeste 0 -- -- 97
2020-10-28 21:00:00 8.7 3 Noroeste 16 Oeste 0 -- -- 96
2020-10-28 20:00:00 9.5 4 Sudoeste 18 Sudoeste 0 -- -- 92
2020-10-28 19:00:00 10.6 7 Sudoeste 17 Oeste 0 -- -- 87
2020-10-28 18:00:00 12 14 Sudoeste 25 Sur 0 -- -- 84
2020-10-28 17:00:00 12 21 Sur 33 Sur 0 -- -- 85
2020-10-28 16:00:00 12.9 23 Sur 30 Sudoeste 0 -- -- 81
2020-10-28 15:00:00 13.6 17 Sudoeste 31 Sudoeste 0 -- -- 77
2020-10-28 14:00:00 13.5 17 Sudoeste 30 Sudoeste 0 -- -- 77
2020-10-28 13:00:00 12.9 19 Sudoeste 30 Sudoeste 0 -- -- 80
2020-10-28 12:00:00 11.3 24 Sudoeste 33 Sudoeste 0 -- -- 84
2020-10-28 11:00:00 10.4 23 Sudoeste 30 Sur 0 -- -- 88
2020-10-28 10:00:00 8.3 24 Sudoeste 35 Sur 0 -- -- 94
2020-10-28 09:00:00 7.3 21 Sur 31 Sudoeste 0 -- -- 96
2020-10-28 08:00:00 7.1 6 Sur 22 Sur 0 -- -- 96
2020-10-28 07:00:00 6.8 5 Sudoeste 16 Sur 0 -- -- 96
2020-10-28 06:00:00 6.7 3 Nordeste 18 Sudoeste 0 -- -- 95
2020-10-28 05:00:00 7 6 Sur 23 Sur 0 -- -- 91
2020-10-28 04:00:00 8.1 5 Sudoeste 11 Sur 0 -- -- 88
2020-10-28 03:00:00 8 6 Sudeste 11 Sur 0 -- -- 88
2020-10-28 02:00:00 8.1 4 Sudeste 15 Sur 0 -- -- 87
2020-10-28 01:00:00 8.4 13 Sur 16 Sur 0 -- -- 86
2020-10-28 00:00:00 9 2 Nordeste 11 Oeste 0 -- -- 84
2020-10-27 23:00:00 9.5 8 Sudoeste 15 Oeste 0 -- -- 83
2020-10-27 22:00:00 9.1 5 Oeste 19 Noroeste 0 -- -- 83
2020-10-27 21:00:00 9.3 14 Oeste 19 Noroeste 0 -- -- 81
2020-10-27 20:00:00 9.2 14 Oeste 28 Oeste 0 -- -- 81
2020-10-27 19:00:00 8.9 22 Noroeste 51 Noroeste 0 -- -- 81
2020-10-27 18:00:00 8.7 22 Noroeste 43 Noroeste 0 -- -- 80
2020-10-27 17:00:00 9.7 32 Noroeste 47 Oeste 0 -- -- 76
2020-10-27 16:00:00 10.3 36 Noroeste 47 Noroeste 0 -- -- 72
2020-10-27 15:00:00 11.1 32 Noroeste 45 Oeste 0 -- -- 69
2020-10-27 14:00:00 10.6 32 Oeste 47 Noroeste 0 -- -- 69
2020-10-27 13:00:00 9.4 38 Noroeste 50 Noroeste 0 -- -- 73
2020-10-27 12:00:00 8.4 31 Oeste 51 Oeste 0 -- -- 74
2020-10-27 11:00:00 7.6 28 Oeste 40 Oeste 0 -- -- 78
2020-10-27 10:00:00 6.6 24 Oeste 38 Oeste 0 -- -- 80
2020-10-27 09:00:00 6.2 24 Oeste 42 Oeste 0 -- -- 81
2020-10-27 08:00:00 5.2 21 Oeste 31 Oeste 0 -- -- 85
2020-10-27 07:00:00 5.2 19 Oeste 35 Oeste 0 -- -- 87
2020-10-27 06:00:00 5.2 23 Oeste 37 Noroeste 0 -- -- 86
2020-10-27 05:00:00 5 22 Oeste 33 Oeste 0 -- -- 89
2020-10-27 04:00:00 5 17 Oeste 24 Oeste 0 -- -- 88
2020-10-27 03:00:00 4.4 14 Noroeste 24 Oeste 0 -- -- 89
2020-10-27 02:00:00 4.7 15 Oeste 27 Oeste 0 -- -- 87
2020-10-27 01:00:00 4.6 15 Oeste 27 Oeste 0 -- -- 88
2020-10-27 00:00:00 4.9 19 Oeste 30 Oeste 0 -- -- 86
2020-10-26 23:00:00 5.6 24 Oeste 40 Oeste 0 -- -- 82
2020-10-26 22:00:00 6.2 21 Oeste 30 Oeste 0 -- -- 80
2020-10-26 21:00:00 5.3 14 Oeste 20 Oeste 0 -- -- 78
2020-10-26 20:00:00 5.8 14 Oeste 26 Oeste 0 -- -- 76
2020-10-26 19:00:00 6.6 18 Oeste 34 Oeste 0 -- -- 72
2020-10-26 18:00:00 7.1 19 Oeste 37 Oeste 0 -- -- 73
2020-10-26 17:00:00 7.5 21 Noroeste 44 Oeste 0 -- -- 68
2020-10-26 16:00:00 7.5 24 Noroeste 41 Oeste 0 -- -- 68
2020-10-26 15:00:00 7 24 Noroeste 37 Noroeste 0 -- -- 72
2020-10-26 14:00:00 6.6 24 Noroeste 38 Noroeste 0 -- -- 73
2020-10-26 13:00:00 6 24 Noroeste 38 Oeste 0 -- -- 76
2020-10-26 12:00:00 5 25 Noroeste 40 Noroeste 0 -- -- 82
2020-10-26 11:00:00 4.2 20 Noroeste 45 Noroeste 0 -- -- 85
2020-10-26 10:00:00 4.2 26 Noroeste 45 Noroeste 0 -- -- 84
2020-10-26 09:00:00 3.9 23 Noroeste 37 Noroeste 0 -- -- 86
2020-10-26 08:00:00 3.8 19 Noroeste 39 Noroeste 0 -- -- 88
2020-10-26 07:00:00 3.9 26 Noroeste 37 Noroeste 0 -- -- 88
2020-10-26 06:00:00 4.1 20 Noroeste 34 Noroeste 0 -- -- 87
2020-10-26 05:00:00 4.3 23 Noroeste 46 Noroeste 0 -- -- 86
2020-10-26 04:00:00 4.1 24 Noroeste 40 Oeste 0 -- -- 90
2020-10-26 03:00:00 3.8 18 Noroeste 39 Noroeste 0 -- -- 89
2020-10-26 02:00:00 4.7 35 Noroeste 58 Noroeste 0 -- -- 88
2020-10-26 01:00:00 5.1 37 Noroeste 55 Oeste 0 -- -- 86
2020-10-26 00:00:00 5.2 20 Noroeste 31 Noroeste 0 -- -- 86
2020-10-25 23:00:00 5.8 21 Oeste 45 Noroeste 0 -- -- 85
2020-10-25 22:00:00 5.8 33 Noroeste 68 Oeste 0 -- -- 89
2020-10-25 21:00:00 8.1 25 Oeste 55 Oeste 0 -- -- 89
2020-10-25 20:00:00 8.8 32 Noroeste 52 Oeste 1.6 -- -- 91
2020-10-25 19:00:00 9.8 12 Oeste 42 Sudoeste 1.8 -- -- 96
2020-10-25 18:00:00 10 32 Sudoeste 57 Sudoeste 0.2 -- -- 93
2020-10-25 17:00:00 10 41 Sudoeste 62 Sudoeste 0 -- -- 93
2020-10-25 16:00:00 10.3 46 Sudoeste 63 Sudoeste 0 -- -- 91
2020-10-25 15:00:00 10.5 32 Sudoeste 64 Sudoeste 0 -- -- 88
2020-10-25 14:00:00 9.8 41 Sudoeste 67 Sudoeste 0 -- -- 90
2020-10-25 13:00:00 9.3 39 Sudoeste 64 Sudoeste 0.2 -- -- 92
2020-10-25 12:00:00 9.4 45 Sudoeste 71 Sudoeste 0 -- -- 90
2020-10-25 11:00:00 8.7 42 Sudoeste 63 Sudoeste 0 -- -- 90
2020-10-25 10:00:00 8.2 44 Sudoeste 63 Sudoeste 0 -- -- 91
2020-10-25 09:00:00 7.5 39 Sudoeste 63 Sudoeste 0 -- -- 94
2020-10-25 08:00:00 7.4 31 Sudoeste 55 Sudoeste 0 -- -- 94
2020-10-25 07:00:00 7.2 22 Sudoeste 37 Sudoeste 0 -- -- 93
2020-10-25 06:00:00 6.9 32 Sudoeste 44 Sudoeste 0 -- -- 94
2020-10-25 05:00:00 6.7 34 Sudoeste 43 Sudoeste 0 -- -- 96
2020-10-25 04:00:00 6.8 34 Sudoeste 44 Sudoeste 0 -- -- 95
2020-10-25 03:00:00 6.8 31 Sur 40 Sur 0 -- -- 94
2020-10-25 02:00:00 6.9 23 Sudoeste 33 Sudoeste 0 -- -- 94
2020-10-25 01:00:00 7.5 20 Sudoeste 27 Sudoeste 0 -- -- 91
2020-10-25 00:00:00 8.2 14 Sudoeste 27 Sudoeste 0 -- -- 90
2020-10-24 23:00:00 8.6 24 Sudoeste 30 Sudoeste 0 -- -- 89
2020-10-24 22:00:00 8.6 18 Sudoeste 35 Sudoeste 0 -- -- 88
2020-10-24 21:00:00 8.4 23 Sudoeste 41 Sudoeste 0 -- -- 88
2020-10-24 20:00:00 8.4 34 Sudoeste 48 Sudoeste 0 -- -- 88
2020-10-24 19:00:00 8.7 36 Sudoeste 45 Sudoeste 0 -- -- 85
2020-10-24 18:00:00 10 32 Sudoeste 42 Sudoeste 0 -- -- 81
2020-10-24 17:00:00 10.7 27 Sudoeste 36 Sudoeste 0 -- -- 79
2020-10-24 16:00:00 10.7 25 Sudoeste 36 Sudoeste 0 -- -- 80
2020-10-24 15:00:00 10.5 26 Sur 35 Sur 0 -- -- 81
2020-10-24 14:00:00 10.5 22 Sur 30 Sur 0 -- -- 82
2020-10-24 13:00:00 9.6 17 Sudoeste 26 Sur 0 -- -- 84
2020-10-24 12:00:00 7.7 14 Sur 21 Sudoeste 0 -- -- 95
2020-10-24 11:00:00 6.1 9 Sur 17 Sur 0 -- -- 99
2020-10-24 10:00:00 4.3 8 Sudoeste 17 Sur 0 -- -- 98
2020-10-24 09:00:00 2.7 4 Sudeste 17 Sur 0 -- -- 96
2020-10-24 08:00:00 4.8 15 Sudoeste 23 Oeste 0 -- -- 91
2020-10-24 07:00:00 5.5 10 Oeste 16 Oeste 0 -- -- 95
2020-10-24 06:00:00 5.6 5 Noroeste 17 Oeste 0 -- -- 94
2020-10-24 05:00:00 5.6 5 Oeste 13 Oeste 0 -- -- 94
2020-10-24 04:00:00 6.2 7 Oeste 17 Oeste 0 -- -- 93
2020-10-24 03:00:00 5.6 7 Oeste 16 Oeste 0 -- -- 93
2020-10-24 02:00:00 4.8 2 Oeste 5 Oeste 0 -- -- 91
2020-10-24 01:00:00 5.4 2 Oeste 6 Noroeste 0 -- -- 89
2020-10-24 00:00:00 5.7 2 Este 6 Nordeste 0 -- -- 88
2020-10-23 23:00:00 6 0 Calma 9 Oeste 0 -- -- 87
2020-10-23 22:00:00 6.2 6 Oeste 19 Oeste 0 -- -- 86
2020-10-23 21:00:00 7 14 Oeste 22 Oeste 0 -- -- 85
2020-10-23 20:00:00 8.8 13 Oeste 28 Noroeste 0 -- -- 78
2020-10-23 19:00:00 10.3 21 Oeste 34 Oeste 0 -- -- 69
2020-10-23 18:00:00 11.7 23 Oeste 38 Oeste 0 -- -- 65
2020-10-23 17:00:00 10.8 23 Noroeste 40 Oeste 0 -- -- 69
2020-10-23 16:00:00 10.7 22 Oeste 44 Oeste 0 -- -- 71
2020-10-23 15:00:00 11 22 Noroeste 39 Oeste 0 -- -- 70
2020-10-23 14:00:00 10.3 31 Oeste 42 Oeste 0 -- -- 71
2020-10-23 13:00:00 9.9 17 Oeste 24 Oeste 0.4 -- -- 76
2020-10-23 12:00:00 9.7 15 Sudoeste 24 Sudoeste 0 -- -- 81
2020-10-23 11:00:00 8.7 19 Sudoeste 27 Sudoeste 0 -- -- 90
2020-10-23 10:00:00 7.6 2 Sudeste 6 Sudoeste 0 -- -- 95
2020-10-23 09:00:00 5.8 0 Calma 11 Oeste 0 -- -- 96
2020-10-23 08:00:00 6.2 0 Calma 6 Noroeste 0 -- -- 95
2020-10-23 07:00:00 6.4 6 Norte 22 Sudoeste 0 -- -- 93
2020-10-23 06:00:00 7.5 16 Sudoeste 21 Sudoeste 0 -- -- 91
2020-10-23 05:00:00 7.6 9 Oeste 26 Oeste 1 -- -- 92
2020-10-23 04:00:00 8.4 18 Oeste 33 Sudoeste 0.2 -- -- 92
2020-10-23 03:00:00 8.9 2 Sur 13 Sudoeste 0.2 -- -- 95
2020-10-23 02:00:00 8.9 3 Oeste 9 Sudoeste 0 -- -- 94
2020-10-23 01:00:00 9.1 3 Sudoeste 13 Sudoeste 1.2 -- -- 95
2020-10-23 00:00:00 9 13 Sudoeste 21 Sudoeste 1.4 -- -- 93
2020-10-22 23:00:00 9.2 7 Oeste 25 Oeste 0.8 -- -- 89
2020-10-22 22:00:00 10.2 22 Oeste 43 Sur 0 -- -- 78
2020-10-22 21:00:00 11.8 29 Sudoeste 50 Sudoeste 0 -- -- 88
2020-10-22 20:00:00 11.5 18 Sur 33 Sudoeste 0 -- -- 87
2020-10-22 19:00:00 12.4 8 Sur 31 Sur 0 -- -- 83
2020-10-22 18:00:00 12.6 20 Sur 33 Sur 0 -- -- 87
2020-10-22 17:00:00 12.2 20 Sudoeste 33 Sudoeste 0.8 -- -- 89
2020-10-22 16:00:00 12.7 14 Sudoeste 34 Sur 0 -- -- 88
2020-10-22 15:00:00 12.7 24 Sur 41 Sur 0.6 -- -- 90
2020-10-22 14:00:00 12.8 18 Sur 33 Sur 1 -- -- 90
2020-10-22 13:00:00 13.2 21 Sur 31 Sur 0 -- -- 84
2020-10-22 12:00:00 13 21 Sur 36 Sur 0 -- -- 86
2020-10-22 11:00:00 11.7 18 Sur 29 Sur 0 -- -- 92
2020-10-22 10:00:00 11.4 17 Sur 27 Sur 0 -- -- 95
2020-10-22 09:00:00 10.5 13 Sur 19 Sudeste 0 -- -- 95
2020-10-22 08:00:00 10.4 11 Sudeste 19 Sur 0 -- -- 96
2020-10-22 07:00:00 10.6 8 Sudeste 19 Sur 0 -- -- 96
2020-10-22 06:00:00 10.4 10 Sudeste 22 Sur 0.2 -- -- 96
2020-10-22 05:00:00 10.4 15 Sur 24 Sur 0.6 -- -- 95
2020-10-22 04:00:00 10.2 5 Sudeste 17 Sudeste 0 -- -- 94
2020-10-22 03:00:00 9.8 15 Sudeste 22 Sur 0 -- -- 95
2020-10-22 02:00:00 9.7 13 Sudeste 19 Este 0 -- -- 94
2020-10-22 01:00:00 10 5 Este 12 Sudeste 0 -- -- 92
2020-10-22 00:00:00 11.1 3 Sudeste 10 Sur 0 -- -- 90
2020-10-21 23:00:00 11.4 4 Sur 18 Sur 0 -- -- 91
2020-10-21 22:00:00 11.2 7 Este 14 Sudeste 0 -- -- 90
2020-10-21 21:00:00 12.1 8 Sudoeste 14 Sudoeste 0 -- -- 86
2020-10-21 20:00:00 11.8 12 Sur 28 Sudoeste 0 -- -- 85
2020-10-21 19:00:00 12.6 14 Oeste 32 Sudoeste 0 -- -- 82
2020-10-21 18:00:00 13 21 Sudoeste 37 Sudoeste 0 -- -- 81
2020-10-21 17:00:00 13 20 Sudoeste 44 Sudoeste 0 -- -- 82
2020-10-21 16:00:00 13 31 Sudoeste 48 Sudoeste 0.2 -- -- 83
2020-10-21 15:00:00 12.6 28 Sudoeste 48 Sudoeste 0 -- -- 89
2020-10-21 14:00:00 12.3 28 Sur 46 Sur 0.6 -- -- 93
2020-10-21 13:00:00 13.1 19 Sudoeste 32 Sudoeste 0 -- -- 86
2020-10-21 12:00:00 12.5 22 Sudoeste 33 Sudoeste 0 -- -- 87
2020-10-21 11:00:00 12.2 19 Sudoeste 38 Sudoeste 0 -- -- 86
2020-10-21 10:00:00 11.5 26 Sudoeste 51 Sur 0 -- -- 85
2020-10-21 09:00:00 11 40 Sudoeste 64 Sudoeste 0 -- -- 87
2020-10-21 08:00:00 10.7 27 Sudoeste 53 Sudoeste 0 -- -- 88
2020-10-21 07:00:00 11.4 36 Sudoeste 69 Sudoeste 0 -- -- 84
2020-10-21 06:00:00 11.8 51 Sudoeste 75 Sudoeste 0 -- -- 81
2020-10-21 05:00:00 11.8 33 Sudoeste 68 Sudoeste 0 -- -- 88
2020-10-21 04:00:00 12.1 38 Sudoeste 86 Sudoeste 0 -- -- 88
2020-10-21 03:00:00 12.1 50 Sudoeste 106 Sur 0.8 -- -- 88
2020-10-21 02:00:00 13 67 Sudoeste 115 Sur 1.8 -- -- 89
2020-10-21 01:00:00 12.7 51 Sur 74 Sur 1.8 -- -- 89
2020-10-21 00:00:00 12.5 49 Sur 76 Sur 2.4 -- -- 90
2020-10-20 23:00:00 12.4 44 Sur 79 Sur 1.6 -- -- 88
2020-10-20 22:00:00 13.1 19 Sur 39 Sur 0.8 -- -- 79
2020-10-20 21:00:00 14.7 12 Sudeste 24 Sur 0 -- -- 69
2020-10-20 20:00:00 14.9 9 Sur 23 Sur 0 -- -- 67
2020-10-20 19:00:00 15.8 21 Sur 38 Sur 0 -- -- 63
2020-10-20 18:00:00 16 26 Sur 36 Sur 0 -- -- 64
2020-10-20 17:00:00 14.5 10 Sur 22 Sudeste 0 -- -- 73
2020-10-20 16:00:00 13 7 Sur 23 Sur 0 -- -- 82
2020-10-20 15:00:00 11.9 16 Sur 30 Sur 0 -- -- 87
2020-10-20 14:00:00 11.4 19 Sur 42 Sur 0.2 -- -- 93
2020-10-20 13:00:00 10.6 24 Sur 40 Sur 2.4 -- -- 94
2020-10-20 12:00:00 10.5 32 Sur 40 Sudoeste 0.8 -- -- 92
2020-10-20 11:00:00 10.7 21 Sudoeste 48 Sur 0 -- -- 88
2020-10-20 10:00:00 11 26 Sur 43 Sudoeste 0 -- -- 85
2020-10-20 09:00:00 11.1 26 Sur 49 Sudoeste 0 -- -- 81
2020-10-20 08:00:00 12 37 Sudoeste 61 Sudoeste 0 -- -- 75
2020-10-20 07:00:00 14.2 24 Sur 45 Sur 0 -- -- 58
2020-10-20 06:00:00 13.5 11 Sudeste 26 Sudeste 0 -- -- 60
2020-10-20 05:00:00 13.9 19 Sur 39 Sur 0 -- -- 61
2020-10-20 04:00:00 14.7 17 Sur 46 Sudoeste 0 -- -- 57
2020-10-20 03:00:00 15 26 Sur 54 Sur 0 -- -- 56
2020-10-20 02:00:00 15.1 28 Sur 43 Sur 0 -- -- 55
2020-10-20 01:00:00 15.2 18 Sur 27 Sur 0 -- -- 53
2020-10-20 00:00:00 15.8 14 Sur 29 Sur 0 -- -- 49
2020-10-19 23:00:00 15.6 10 Sur 20 Sur 0 -- -- 47
2020-10-19 22:00:00 15 6 Sur 25 Sur 0 -- -- 46
2020-10-19 21:00:00 16.5 12 Sur 48 Sur 0 -- -- 43
2020-10-19 20:00:00 16.7 15 Sur 24 Sur 0 -- -- 44
2020-10-19 19:00:00 17.6 19 Sur 30 Sudoeste 0 -- -- 42
2020-10-19 18:00:00 18.4 22 Sudoeste 50 Sudoeste 0 -- -- 39
2020-10-19 17:00:00 19.5 30 Sudoeste 52 Sudoeste 0 -- -- 36
2020-10-19 16:00:00 19.1 35 Sudoeste 53 Sudoeste 0 -- -- 37
2020-10-19 15:00:00 18.7 29 Sudoeste 49 Sudoeste 0 -- -- 39
2020-10-19 14:00:00 17.5 30 Sudoeste 49 Sudoeste 0 -- -- 44
2020-10-19 13:00:00 15.9 28 Sudoeste 56 Sudoeste 0 -- -- 50
2020-10-19 12:00:00 14.6 47 Sudoeste 60 Sudoeste 0 -- -- 51
2020-10-19 11:00:00 13.1 43 Sudoeste 57 Sudoeste 0 -- -- 58
2020-10-19 10:00:00 10.9 18 Sur 32 Sur 0 -- -- 71
2020-10-19 09:00:00 7.5 15 Sudeste 22 Sudeste 0 -- -- 79
2020-10-19 08:00:00 5.8 6 Sudeste 21 Este 0 -- -- 78
2020-10-19 07:00:00 5.9 14 Sudeste 20 Sudeste 0 -- -- 72
2020-10-19 06:00:00 5.6 16 Sudeste 18 Sudeste 0 -- -- 69
2020-10-19 05:00:00 6.1 14 Sudeste 17 Sudeste 0 -- -- 64
2020-10-19 04:00:00 7.3 11 Sur 18 Sur 0 -- -- 60
2020-10-19 03:00:00 5.4 0 Calma 7 Sudeste 0 -- -- 67
2020-10-19 02:00:00 6 5 Sudeste 9 Este 0 -- -- 66
2020-10-19 01:00:00 6.1 7 Este 9 Sudeste 0 -- -- 61
2020-10-19 00:00:00 6.8 8 Sudeste 11 Sudeste 0 -- -- 59
2020-10-18 23:00:00 7.2 8 Sudeste 10 Sudeste 0 -- -- 61
2020-10-18 22:00:00 8.8 9 Sudeste 11 Sudeste 0 -- -- 57
2020-10-18 21:00:00 11.2 4 Sudeste 12 Sudeste 0 -- -- 52
2020-10-18 20:00:00 13.2 0 Calma 19 Sudoeste 0 -- -- 46
2020-10-18 19:00:00 15.3 17 Sudoeste 19 Sudoeste 0 -- -- 42
2020-10-18 18:00:00 17.2 6 Sudeste 13 Sudoeste 0 -- -- 38
2020-10-18 17:00:00 18.3 6 Sur 15 Sudeste 0 -- -- 36
2020-10-18 16:00:00 18 7 Este 16 Este 0 -- -- 37
2020-10-18 15:00:00 17.4 5 Sudeste 15 Noroeste 0 -- -- 40
2020-10-18 14:00:00 16.5 3 Noroeste 12 Sudeste 0 -- -- 41
2020-10-18 13:00:00 15.9 2 Sur 10 Sudeste 0 -- -- 45
2020-10-18 12:00:00 13.9 5 Este 10 Sudeste 0 -- -- 50
2020-10-18 11:00:00 7.3 4 Sudeste 5 Este 0 -- -- 76
2020-10-18 10:00:00 1.8 0 Calma 3 Sudeste 0 -- -- 88
2020-10-18 09:00:00 -0.1 0 Calma 3 Este 0 -- -- 89
2020-10-18 08:00:00 -0.5 0 Calma 2 Sur 0 -- -- 89
2020-10-18 07:00:00 -0.1 0 Calma 3 Oeste 0 -- -- 87
2020-10-18 06:00:00 0.2 2 Sudeste 6 Sudeste 0 -- -- 87
2020-10-18 05:00:00 1.2 3 Oeste 4 Oeste 0 -- -- 84
2020-10-18 04:00:00 1.6 0 Calma 4 Sudeste 0 -- -- 82
2020-10-18 03:00:00 2.4 5 Sudeste 6 Sudeste 0 -- -- 82
2020-10-18 02:00:00 2.5 3 Sudeste 4 Este 0 -- -- 78
2020-10-18 01:00:00 3 3 Sudeste 4 Sudeste 0 -- -- 77
2020-10-18 00:00:00 3.9 0 Calma 6 Sudeste 0 -- -- 74
2020-10-17 23:00:00 5.5 3 Sudeste 5 Este 0 -- -- 67
2020-10-17 22:00:00 6.9 0 Calma 5 Sudeste 0 -- -- 61
2020-10-17 21:00:00 8.6 3 Sudoeste 9 Oeste 0 -- -- 56
2020-10-17 20:00:00 11.1 5 Oeste 17 Noroeste 0 -- -- 48
2020-10-17 19:00:00 13.7 15 Noroeste 30 Noroeste 0 -- -- 41
2020-10-17 18:00:00 14.9 20 Noroeste 35 Noroeste 0 -- -- 38
2020-10-17 17:00:00 15.2 21 Noroeste 35 Oeste 0 -- -- 37
2020-10-17 16:00:00 14.6 19 Noroeste 35 Noroeste 0 -- -- 43
2020-10-17 15:00:00 14.5 21 Noroeste 35 Noroeste 0 -- -- 45
2020-10-17 14:00:00 13.6 20 Noroeste 36 Noroeste 0 -- -- 46
2020-10-17 13:00:00 12.8 14 Noroeste 22 Noroeste 0 -- -- 52
2020-10-17 12:00:00 10.7 3 Noroeste 9 Oeste 0 -- -- 56
2020-10-17 11:00:00 7.3 0 Calma 5 Sudeste 0 -- -- 74
2020-10-17 10:00:00 2.7 3 Sudeste 5 Sudeste 0 -- -- 87
2020-10-17 09:00:00 -0.2 2 Sudeste 5 Sudeste 0 -- -- 90
2020-10-17 08:00:00 -0.2 2 Sudeste 9 Sudeste 0 -- -- 88
2020-10-17 07:00:00 0.1 4 Sudeste 7 Sudeste 0 -- -- 88
2020-10-17 06:00:00 -0.9 2 Sudeste 4 Sudeste 0 -- -- 89
2020-10-17 05:00:00 -0.5 2 Sudeste 5 Sudeste 0 -- -- 88
2020-10-17 04:00:00 0.2 3 Sudeste 4 Sudeste 0 -- -- 86
2020-10-17 03:00:00 1 2 Sudeste 6 Sudeste 0 -- -- 83
2020-10-17 02:00:00 1.3 0 Calma 5 Sudeste 0 -- -- 80
2020-10-17 01:00:00 2.4 2 Sudeste 6 Oeste 0 -- -- 76
2020-10-17 00:00:00 3.5 3 Oeste 5 Oeste 0 -- -- 73
2020-10-16 23:00:00 3.8 0 Calma 12 Oeste 0 -- -- 70
2020-10-16 22:00:00 4.9 11 Oeste 12 Oeste 0 -- -- 67
2020-10-16 21:00:00 6.1 9 Oeste 12 Oeste 0 -- -- 60
2020-10-16 20:00:00 8.1 7 Oeste 21 Noroeste 0 -- -- 53
2020-10-16 19:00:00 10.3 18 Noroeste 27 Oeste 0 -- -- 50
2020-10-16 18:00:00 11.5 17 Noroeste 30 Noroeste 0 -- -- 53
2020-10-16 17:00:00 11.3 17 Noroeste 32 Noroeste 0 -- -- 52
2020-10-16 16:00:00 11.1 19 Noroeste 28 Noroeste 0 -- -- 51
2020-10-16 15:00:00 10.1 16 Noroeste 24 Oeste 0 -- -- 55
2020-10-16 14:00:00 8.9 11 Noroeste 21 Oeste 0 -- -- 58
2020-10-16 13:00:00 8.3 9 Noroeste 20 Noroeste 0 -- -- 62
2020-10-16 12:00:00 6.5 11 Noroeste 20 Noroeste 0 -- -- 74
2020-10-16 11:00:00 4.8 7 Noroeste 15 Noroeste 0 -- -- 88
2020-10-16 10:00:00 1.5 3 Norte 8 Noroeste 0 -- -- 92
2020-10-16 09:00:00 0 3 Noroeste 5 Noroeste 0 -- -- 92
2020-10-16 08:00:00 0 2 Norte 5 Noroeste 0 -- -- 92
2020-10-16 07:00:00 -0.4 0 Calma 4 Noroeste 0 -- -- 92
2020-10-16 06:00:00 -0.3 2 Noroeste 9 Noroeste 0 -- -- 92
2020-10-16 05:00:00 -0.3 0 Calma 5 Sudoeste 0 -- -- 90
2020-10-16 04:00:00 0.4 3 Oeste 10 Oeste 0 -- -- 90
2020-10-16 03:00:00 0.8 3 Noroeste 13 Norte 0 -- -- 91
2020-10-16 02:00:00 1.1 3 Noroeste 6 Oeste 0 -- -- 90
2020-10-16 01:00:00 1 2 Oeste 10 Oeste 0 -- -- 90
2020-10-16 00:00:00 2.1 5 Oeste 9 Oeste 0 -- -- 86
2020-10-15 23:00:00 2.3 8 Oeste 10 Oeste 0 -- -- 83
2020-10-15 22:00:00 3.7 4 Norte 13 Norte 0 -- -- 77
2020-10-15 21:00:00 5 3 Nordeste 12 Norte 0 -- -- 74
2020-10-15 20:00:00 6.1 9 Norte 27 Norte 0 -- -- 69
2020-10-15 19:00:00 8.6 17 Norte 35 Noroeste 0 -- -- 64
2020-10-15 18:00:00 9.7 17 Noroeste 33 Norte 0 -- -- 58
2020-10-15 17:00:00 9 23 Noroeste 38 Norte 0 -- -- 64
2020-10-15 16:00:00 9.6 31 Noroeste 47 Noroeste 0 -- -- 61
2020-10-15 15:00:00 10 26 Noroeste 39 Noroeste 0 -- -- 60
2020-10-15 14:00:00 9.4 26 Noroeste 43 Noroeste 0 -- -- 64
2020-10-15 13:00:00 7.6 23 Noroeste 39 Noroeste 0 -- -- 72
2020-10-15 12:00:00 7.1 26 Noroeste 43 Noroeste 0 -- -- 74
2020-10-15 11:00:00 6.2 24 Noroeste 38 Noroeste 0 -- -- 80
2020-10-15 10:00:00 5 22 Noroeste 31 Noroeste 0 -- -- 89
2020-10-15 09:00:00 3.7 19 Noroeste 39 Noroeste 0 -- -- 92
2020-10-15 08:00:00 2.8 12 Noroeste 26 Noroeste 0 -- -- 93
2020-10-15 07:00:00 2.7 8 Noroeste 19 Noroeste 0 -- -- 92
2020-10-15 06:00:00 2.2 6 Noroeste 13 Noroeste 0 -- -- 92
2020-10-15 05:00:00 2.5 5 Noroeste 9 Noroeste 0 -- -- 89
2020-10-15 04:00:00 2.9 2 Noroeste 14 Noroeste 0 -- -- 88
2020-10-15 03:00:00 3.2 10 Noroeste 15 Noroeste 0 -- -- 87
2020-10-15 02:00:00 3.2 5 Noroeste 10 Oeste 0 -- -- 87
2020-10-15 01:00:00 3.8 10 Noroeste 19 Oeste 0 -- -- 86
2020-10-15 00:00:00 4.3 6 Oeste 13 Noroeste 0 -- -- 84
2020-10-14 23:00:00 5.1 10 Noroeste 19 Noroeste 0 -- -- 80
2020-10-14 22:00:00 6.3 14 Noroeste 24 Noroeste 0 -- -- 74
2020-10-14 21:00:00 6.7 18 Noroeste 33 Norte 0 -- -- 71
2020-10-14 20:00:00 7.7 23 Norte 34 Noroeste 0 -- -- 66
2020-10-14 19:00:00 9.5 24 Norte 33 Noroeste 0 -- -- 59
2020-10-14 18:00:00 10.6 19 Norte 36 Noroeste 0 -- -- 58
2020-10-14 17:00:00 10.4 22 Norte 44 Noroeste 0 -- -- 57
2020-10-14 16:00:00 10.6 28 Noroeste 45 Noroeste 0 -- -- 53
2020-10-14 15:00:00 10.2 26 Noroeste 43 Noroeste 0 -- -- 58
2020-10-14 14:00:00 9.7 28 Noroeste 50 Noroeste 0 -- -- 61
2020-10-14 13:00:00 8.9 24 Noroeste 42 Noroeste 0 -- -- 67
2020-10-14 12:00:00 8.1 23 Noroeste 41 Noroeste 0 -- -- 70
2020-10-14 11:00:00 7.1 26 Noroeste 35 Noroeste 0 -- -- 77
2020-10-14 10:00:00 6 24 Noroeste 31 Noroeste 0 -- -- 84
2020-10-14 09:00:00 4.9 15 Noroeste 32 Noroeste 0 -- -- 88
2020-10-14 08:00:00 4.8 17 Oeste 28 Noroeste 0 -- -- 85
2020-10-14 07:00:00 3.9 6 Oeste 14 Oeste 0 -- -- 86
2020-10-14 06:00:00 4.4 9 Oeste 24 Oeste 0 -- -- 83
2020-10-14 05:00:00 6 15 Oeste 23 Oeste 0 -- -- 81
2020-10-14 04:00:00 7.7 8 Noroeste 14 Noroeste 0 -- -- 83
2020-10-14 03:00:00 8.5 3 Norte 18 Noroeste 0 -- -- 86
2020-10-14 02:00:00 8.5 0 Calma 14 Este 0 -- -- 85
2020-10-14 01:00:00 9.1 8 Este 23 Este 0 -- -- 82
2020-10-14 00:00:00 9.9 11 Este 19 Sudeste 0 -- -- 79
2020-10-13 23:00:00 10.4 11 Sudeste 18 Sudeste 0 -- -- 78
2020-10-13 22:00:00 11.3 0 Calma 5 Sur 0 -- -- 78
2020-10-13 21:00:00 12.1 2 Sudoeste 4 Sur 0 -- -- 74
2020-10-13 20:00:00 13.1 0 Calma 5 Oeste 0 -- -- 70
2020-10-13 19:00:00 13.9 3 Sur 22 Oeste 0 -- -- 69
2020-10-13 18:00:00 14.7 15 Noroeste 30 Noroeste 0 -- -- 64
2020-10-13 17:00:00 13.7 16 Noroeste 28 Noroeste 0 -- -- 70
2020-10-13 16:00:00 14.7 18 Noroeste 33 Oeste 0 -- -- 68
2020-10-13 15:00:00 14 22 Oeste 30 Noroeste 0 -- -- 69
2020-10-13 14:00:00 13.9 22 Noroeste 32 Noroeste 0 -- -- 70
2020-10-13 13:00:00 12.2 22 Noroeste 33 Oeste 0 -- -- 77
2020-10-13 12:00:00 10.1 14 Noroeste 30 Noroeste 0 -- -- 92
2020-10-13 11:00:00 -- -- -- -- -- -- -- -- --
2020-10-13 10:00:00 -- -- -- -- -- -- -- -- --
2020-10-13 09:00:00 8.7 7 Noroeste 13 Noroeste 0 -- -- 86
2020-10-13 08:00:00 8.9 10 Noroeste 21 Noroeste 0 -- -- 82
2020-10-13 07:00:00 9.5 20 Noroeste 30 Noroeste 0 -- -- 81
2020-10-13 06:00:00 10.5 12 Norte 30 Noroeste 0 -- -- 63
2020-10-13 05:00:00 8.5 2 Sur 7 Este 0 -- -- 69
2020-10-13 04:00:00 -- -- -- -- -- -- -- -- --
2020-10-13 03:00:00 7.2 3 Nordeste 10 Nordeste 0 -- -- 73
2020-10-13 02:00:00 7.7 2 Norte 7 Sudeste 0 -- -- 69
2020-10-13 01:00:00 -- -- -- -- -- -- -- -- --
2020-10-13 00:00:00 9 3 Noroeste 7 Noroeste 0 -- -- 67
2020-10-12 23:00:00 8.9 4 Oeste 17 Noroeste 0 -- -- 67
2020-10-12 22:00:00 9.3 7 Noroeste 17 Oeste 0 -- -- 66
2020-10-12 21:00:00 9.8 11 Noroeste 30 Noroeste 0 -- -- 68
2020-10-12 20:00:00 11.2 22 Noroeste 42 Noroeste 0 -- -- 62
2020-10-12 19:00:00 12.7 30 Noroeste 45 Noroeste 0 -- -- 53
2020-10-12 18:00:00 -- -- -- -- -- -- -- -- --
2020-10-12 17:00:00 13.5 27 Noroeste 40 Noroeste 0 -- -- 49
2020-10-12 16:00:00 13.3 24 Noroeste 39 Noroeste 0 -- -- 47
2020-10-12 15:00:00 12.6 16 Noroeste 31 Noroeste 0 -- -- 52
2020-10-12 14:00:00 11.8 15 Norte 32 Norte 0 -- -- 54
2020-10-12 13:00:00 10.9 18 Norte 42 Noroeste 0 -- -- 57
2020-10-12 12:00:00 9.5 25 Norte 38 Norte 0 -- -- 60
2020-10-12 11:00:00 7.6 20 Noroeste 36 Noroeste 0 -- -- 82
2020-10-12 10:00:00 5.9 21 Noroeste 31 Noroeste 0 -- -- 88
2020-10-12 09:00:00 4.1 14 Noroeste 31 Noroeste 0 -- -- 92
2020-10-12 08:00:00 4.1 23 Noroeste 35 Noroeste 0 -- -- 90
2020-10-12 07:00:00 4.6 19 Noroeste 35 Noroeste 0 -- -- 89
2020-10-12 06:00:00 4.8 17 Noroeste 34 Noroeste 0 -- -- 87
2020-10-12 05:00:00 4.8 23 Noroeste 33 Noroeste 0 -- -- 89
2020-10-12 04:00:00 -- -- -- -- -- -- -- -- --
2020-10-12 03:00:00 4.3 17 Noroeste 30 Oeste 0 -- -- 88
2020-10-12 02:00:00 4.4 19 Noroeste 30 Noroeste 0 -- -- 86
2020-10-12 01:00:00 5.1 13 Noroeste 33 Noroeste 0 -- -- 83
2020-10-12 00:00:00 5.6 21 Noroeste 31 Noroeste 0 -- -- 81
2020-10-11 23:00:00 6.1 17 Noroeste 25 Noroeste 0 -- -- 78
2020-10-11 22:00:00 6.9 16 Noroeste 35 Norte 0 -- -- 69
2020-10-11 21:00:00 -- -- -- -- -- -- -- -- --
2020-10-11 20:00:00 -- -- -- -- -- -- -- -- --
2020-10-11 19:00:00 11.3 25 Noroeste 38 Noroeste 0 -- -- 51
2020-10-11 18:00:00 12.9 23 Noroeste 48 Noroeste 0 -- -- 46
2020-10-11 17:00:00 13.4 21 Noroeste 38 Noroeste 0 -- -- 46
2020-10-11 16:00:00 13.6 17 Noroeste 36 Noroeste 0 -- -- 44
2020-10-11 15:00:00 12.6 18 Norte 28 Oeste 0 -- -- 49
2020-10-11 14:00:00 11.1 16 Noroeste 31 Noroeste 0 -- -- 55
2020-10-11 13:00:00 10.3 18 Noroeste 31 Norte 0 -- -- 59
2020-10-11 12:00:00 9.3 16 Norte 26 Norte 0 -- -- 60
2020-10-11 11:00:00 7.1 18 Noroeste 29 Noroeste 0 -- -- 72
2020-10-11 10:00:00 5.4 12 Noroeste 22 Noroeste 0 -- -- 85
2020-10-11 09:00:00 3.6 0 Calma 6 Noroeste 0 -- -- 93
2020-10-11 08:00:00 2.8 0 Calma 10 Oeste 0 -- -- 93
2020-10-11 07:00:00 3.4 3 Norte 7 Noroeste 0 -- -- 93
2020-10-11 06:00:00 3.5 4 Norte 7 Norte 0 -- -- 92
2020-10-11 05:00:00 3.8 2 Nordeste 6 Norte 0 -- -- 91
2020-10-11 04:00:00 3.3 0 Calma 4 Oeste 0 -- -- 91
2020-10-11 03:00:00 3.5 0 Calma 4 Oeste 0 -- -- 90
2020-10-11 02:00:00 3.9 4 Oeste 7 Sudeste 0 -- -- 90
2020-10-11 01:00:00 5 4 Oeste 6 Oeste 0 -- -- 86
2020-10-11 00:00:00 6.4 0 Calma 6 Noroeste 0 -- -- 80
2020-10-10 23:00:00 7.5 2 Noroeste 9 Nordeste 0 -- -- 77
2020-10-10 22:00:00 8.6 4 Este 16 Este 0 -- -- 72
2020-10-10 21:00:00 10 15 Este 23 Este 0 -- -- 69
2020-10-10 20:00:00 10.9 19 Este 32 Este 0 -- -- 69
2020-10-10 19:00:00 12.8 27 Este 35 Este 0 -- -- 67
2020-10-10 18:00:00 15.6 23 Este 36 Este 0 -- -- 61
2020-10-10 17:00:00 17.4 17 Este 28 Este 0 -- -- 52
2020-10-10 16:00:00 17.1 17 Nordeste 25 Este 0 -- -- 53
2020-10-10 15:00:00 16.9 21 Este 31 Este 0 -- -- 56
2020-10-10 14:00:00 17 13 Este 26 Nordeste 0 -- -- 58
2020-10-10 13:00:00 16 11 Este 21 Este 0 -- -- 62
2020-10-10 12:00:00 14.5 17 Este 28 Este 0 -- -- 67
2020-10-10 11:00:00 12.3 12 Este 20 Este 0 -- -- 76
2020-10-10 10:00:00 10.2 8 Este 10 Nordeste 0 -- -- 95
2020-10-10 09:00:00 6.3 2 Este 8 Este 0 -- -- 99
2020-10-10 08:00:00 6.2 3 Oeste 7 Este 0 -- -- 95
2020-10-10 07:00:00 7 2 Oeste 5 Este 0 -- -- 96
2020-10-10 06:00:00 7.2 0 Calma 5 Oeste 0 -- -- 96
2020-10-10 05:00:00 7.9 2 Oeste 6 Oeste 0 -- -- 94
2020-10-10 04:00:00 8.4 3 Noroeste 5 Oeste 0 -- -- 92
2020-10-10 03:00:00 9.2 2 Noroeste 5 Oeste 0 -- -- 90
2020-10-10 02:00:00 9.7 0 Calma 4 Oeste 0 -- -- 89
2020-10-10 01:00:00 10.9 2 Sudeste 5 Sudeste 0 -- -- 85
2020-10-10 00:00:00 11.1 2 Sur 6 Sudeste 0 -- -- 80
2020-10-09 23:00:00 12.1 2 Sudeste 6 Este 0 -- -- 75
2020-10-09 22:00:00 13.7 4 Sudeste 6 Sudeste 0 -- -- 69
2020-10-09 21:00:00 15.7 6 Oeste 7 Oeste 0 -- -- 63
2020-10-09 20:00:00 18.7 5 Oeste 13 Noroeste 0 -- -- 52
2020-10-09 19:00:00 21.6 9 Noroeste 19 Norte 0 -- -- 45
2020-10-09 18:00:00 22.8 14 Noroeste 28 Oeste 0 -- -- 41
2020-10-09 17:00:00 23.3 16 Noroeste 32 Noroeste 0 -- -- 33
2020-10-09 16:00:00 23.3 15 Noroeste 30 Noroeste 0 -- -- 34
2020-10-09 15:00:00 22.4 9 Norte 21 Norte 0 -- -- 43
2020-10-09 14:00:00 21.6 5 Nordeste 13 Este 0 -- -- 45
2020-10-09 13:00:00 21 6 Norte 11 Norte 0 -- -- 49
2020-10-09 12:00:00 19.2 4 Este 7 Sudeste 0 -- -- 59
2020-10-09 11:00:00 15.5 4 Este 6 Este 0 -- -- 75
2020-10-09 10:00:00 11.9 3 Sudeste 5 Sudeste 0 -- -- 88
2020-10-09 09:00:00 8.5 3 Oeste 9 Sur 0 -- -- 93
2020-10-09 08:00:00 8.2 5 Sudeste 6 Sudeste 0 -- -- 92
2020-10-09 07:00:00 7.5 3 Sudeste 5 Sudeste 0 -- -- 92
2020-10-09 06:00:00 7.7 3 Sudeste 4 Sudeste 0 -- -- 90
2020-10-09 05:00:00 8.1 0 Calma 5 Sudeste 0 -- -- 90
2020-10-09 04:00:00 8.5 3 Sudeste 5 Sudeste 0 -- -- 89
2020-10-09 03:00:00 8.9 0 Calma 5 Sudeste 0 -- -- 88
2020-10-09 02:00:00 9.4 0 Calma 4 Sudeste 0 -- -- 86
2020-10-09 01:00:00 10.3 3 Oeste 6 Sudeste 0 -- -- 85
2020-10-09 00:00:00 11.6 2 Sudeste 5 Sudeste 0 -- -- 82
2020-10-08 23:00:00 13 3 Este 5 Este 0 -- -- 76
2020-10-08 22:00:00 15.2 3 Sudeste 8 Oeste 0 -- -- 68
2020-10-08 21:00:00 16.9 7 Oeste 9 Oeste 0 -- -- 61
2020-10-08 20:00:00 18.8 4 Oeste 22 Sudoeste 0 -- -- 56
2020-10-08 19:00:00 20.6 18 Sudoeste 27 Sudoeste 0 -- -- 52
2020-10-08 18:00:00 21.3 19 Sudoeste 28 Sudoeste 0 -- -- 50
2020-10-08 17:00:00 21.6 13 Sur 24 Sur 0 -- -- 50
2020-10-08 16:00:00 22.9 15 Sudoeste 27 Sudoeste 0 -- -- 48
2020-10-08 15:00:00 22.1 18 Sudoeste 33 Sudoeste 0 -- -- 46
2020-10-08 14:00:00 21.3 24 Sur 34 Sudoeste 0 -- -- 53
2020-10-08 13:00:00 20.6 20 Sudoeste 30 Sudoeste 0 -- -- 55
2020-10-08 12:00:00 18.8 16 Sur 26 Sur 0 -- -- 62
2020-10-08 11:00:00 16.7 15 Sur 26 Sur 0 -- -- 70
2020-10-08 10:00:00 12.7 10 Sur 22 Sudoeste 0 -- -- 98
2020-10-08 09:00:00 8.4 8 Sudeste 11 Sudeste 0 -- -- 99
2020-10-08 08:00:00 6.6 4 Este 9 Este 0 -- -- 98
2020-10-08 07:00:00 6.4 5 Sudeste 8 Sudeste 0 -- -- 97
2020-10-08 06:00:00 6.7 0 Calma 5 Oeste 0 -- -- 97
2020-10-08 05:00:00 6.9 3 Sudeste 5 Sudeste 0 -- -- 95
2020-10-08 04:00:00 8 0 Calma 2 Este 0 -- -- 94
2020-10-08 03:00:00 9.1 0 Calma 3 Este 0 -- -- 93
2020-10-08 02:00:00 10.1 0 Calma 3 Este 0 -- -- 92
2020-10-08 01:00:00 11 0 Calma 4 Noroeste 0 -- -- 90
2020-10-08 00:00:00 12.2 5 Sudeste 10 Sudeste 0 -- -- 86
2020-10-07 23:00:00 13.9 3 Sudeste 18 Sudeste 0 -- -- 81
2020-10-07 22:00:00 14.4 5 Sudeste 14 Este 0 -- -- 77
2020-10-07 21:00:00 16 0 Calma 6 Oeste 0 -- -- 69
2020-10-07 20:00:00 17.9 4 Oeste 13 Norte 0 -- -- 63
2020-10-07 19:00:00 20.1 7 Norte 16 Norte 0 -- -- 55
2020-10-07 18:00:00 20.9 10 Norte 16 Norte 0 -- -- 52
2020-10-07 17:00:00 20.8 8 Norte 21 Norte 0 -- -- 53
2020-10-07 16:00:00 20.7 13 Norte 25 Noroeste 0 -- -- 54
2020-10-07 15:00:00 20.1 13 Norte 24 Norte 0 -- -- 56
2020-10-07 14:00:00 19.4 14 Noroeste 27 Noroeste 0 -- -- 59
2020-10-07 13:00:00 17.9 13 Noroeste 29 Norte 0 -- -- 64
2020-10-07 12:00:00 16.7 18 Noroeste 27 Noroeste 0 -- -- 68
2020-10-07 11:00:00 15.1 16 Noroeste 26 Noroeste 0 -- -- 74
2020-10-07 10:00:00 13.1 10 Noroeste 18 Noroeste 0 -- -- 81
2020-10-07 09:00:00 12 11 Norte 32 Noroeste 0 -- -- 82
2020-10-07 08:00:00 11.9 18 Noroeste 43 Noroeste 0 -- -- 81
2020-10-07 07:00:00 12 22 Noroeste 33 Noroeste 0 -- -- 81
2020-10-07 06:00:00 12.1 17 Noroeste 32 Noroeste 0 -- -- 81
2020-10-07 05:00:00 12 16 Noroeste 26 Noroeste 0 -- -- 83
2020-10-07 04:00:00 12.4 18 Noroeste 26 Oeste 0 -- -- 83
2020-10-07 03:00:00 11.7 8 Noroeste 18 Oeste 0 -- -- 86
2020-10-07 02:00:00 12.9 13 Oeste 20 Oeste 0 -- -- 81
2020-10-07 01:00:00 13.5 16 Oeste 28 Oeste 0 -- -- 80
2020-10-07 00:00:00 14.1 21 Oeste 29 Oeste 0 -- -- 82
2020-10-06 23:00:00 13.9 13 Oeste 20 Oeste 0 -- -- 85
2020-10-06 22:00:00 14.8 14 Oeste 19 Oeste 0 -- -- 81
2020-10-06 21:00:00 15 4 Oeste 11 Oeste 0 -- -- 80
2020-10-06 20:00:00 16 8 Oeste 24 Noroeste 0 -- -- 76
2020-10-06 19:00:00 17.5 15 Noroeste 38 Noroeste 0 -- -- 69
2020-10-06 18:00:00 17.6 24 Noroeste 38 Noroeste 0 -- -- 69
2020-10-06 17:00:00 18.4 28 Oeste 40 Noroeste 0 -- -- 66
2020-10-06 16:00:00 16.8 28 Noroeste 43 Noroeste 0 -- -- 73
2020-10-06 15:00:00 16.1 27 Noroeste 38 Noroeste 0 -- -- 77
2020-10-06 14:00:00 15.7 22 Noroeste 36 Oeste 0 -- -- 77
2020-10-06 13:00:00 15.7 22 Noroeste 38 Noroeste 0 -- -- 75
2020-10-06 12:00:00 15.1 24 Noroeste 33 Noroeste 0 -- -- 78
2020-10-06 11:00:00 14.2 23 Noroeste 35 Noroeste 0 -- -- 83
2020-10-06 10:00:00 12.8 13 Noroeste 32 Oeste 0 -- -- 89
2020-10-06 09:00:00 11.9 14 Noroeste 34 Noroeste 0 -- -- 90
2020-10-06 08:00:00 11.3 8 Noroeste 17 Noroeste 0 -- -- 91
2020-10-06 07:00:00 10.9 14 Noroeste 24 Noroeste 0 -- -- 92
2020-10-06 06:00:00 11.1 14 Noroeste 21 Noroeste 0 -- -- 89
2020-10-06 05:00:00 10.7 9 Noroeste 14 Noroeste 0 -- -- 87
2020-10-06 04:00:00 9.8 6 Noroeste 10 Noroeste 0 -- -- 85
2020-10-06 03:00:00 7.7 0 Calma 6 Sudeste 0 -- -- 79
2020-10-06 02:00:00 8.6 3 Oeste 8 Oeste 0 -- -- 76
2020-10-06 01:00:00 10.6 9 Oeste 12 Oeste 0 -- -- 73
2020-10-06 00:00:00 10.4 3 Noroeste 14 Oeste 0 -- -- 68
2020-10-05 23:00:00 10.5 10 Oeste 14 Oeste 0 -- -- 66
2020-10-05 22:00:00 9.1 7 Oeste 13 Oeste 0 -- -- 69
2020-10-05 21:00:00 10 7 Oeste 15 Oeste 0 -- -- 64
2020-10-05 20:00:00 11.6 12 Noroeste 27 Oeste 0 -- -- 57
2020-10-05 19:00:00 13.4 22 Noroeste 35 Oeste 0 -- -- 52
2020-10-05 18:00:00 13.9 22 Noroeste 41 Oeste 0 -- -- 49
2020-10-05 17:00:00 14.1 27 Noroeste 41 Noroeste 0 -- -- 52
2020-10-05 16:00:00 14 24 Noroeste 36 Noroeste 0 -- -- 50
2020-10-05 15:00:00 12.8 25 Noroeste 35 Noroeste 0 -- -- 55
2020-10-05 14:00:00 12 23 Noroeste 43 Noroeste 0 -- -- 58
2020-10-05 13:00:00 10.8 30 Noroeste 43 Noroeste 0 -- -- 63
2020-10-05 12:00:00 9.5 28 Noroeste 48 Noroeste 0 -- -- 69
2020-10-05 11:00:00 8.3 32 Noroeste 42 Noroeste 0 -- -- 76
2020-10-05 10:00:00 6.9 18 Noroeste 30 Noroeste 0 -- -- 87
2020-10-05 09:00:00 5.2 10 Noroeste 17 Noroeste 0 -- -- 93
2020-10-05 08:00:00 4.7 10 Noroeste 17 Oeste 0 -- -- 92
2020-10-05 07:00:00 5.3 10 Noroeste 18 Noroeste 0 -- -- 90
2020-10-05 06:00:00 6 12 Noroeste 28 Noroeste 0 -- -- 89
2020-10-05 05:00:00 7.3 19 Noroeste 34 Oeste 0 -- -- 85
2020-10-05 04:00:00 7.8 21 Noroeste 37 Noroeste 0 -- -- 85
2020-10-05 03:00:00 8 24 Noroeste 41 Oeste 0 -- -- 86
2020-10-05 02:00:00 8.5 24 Noroeste 38 Oeste 0 -- -- 82
2020-10-05 01:00:00 8 23 Noroeste 39 Oeste 0 -- -- 84
2020-10-05 00:00:00 8.4 27 Oeste 38 Oeste 0 -- -- 81
2020-10-04 23:00:00 8.4 23 Oeste 50 Noroeste 0 -- -- 83
2020-10-04 22:00:00 9.1 23 Oeste 37 Oeste 0 -- -- 76
2020-10-04 21:00:00 9.6 13 Oeste 34 Oeste 0 -- -- 76
2020-10-04 20:00:00 9.7 18 Oeste 57 Oeste 0 -- -- 74
2020-10-04 19:00:00 12.5 36 Oeste 56 Oeste 0 -- -- 57
2020-10-04 18:00:00 13.2 35 Oeste 55 Oeste 0 -- -- 54
2020-10-04 17:00:00 12.5 37 Oeste 63 Noroeste 0 -- -- 55
2020-10-04 16:00:00 13.3 36 Oeste 64 Noroeste 0 -- -- 52
2020-10-04 15:00:00 12.3 40 Noroeste 62 Oeste 0 -- -- 58
2020-10-04 14:00:00 12 35 Noroeste 59 Oeste 0 -- -- 60
2020-10-04 13:00:00 12.2 44 Oeste 71 Oeste 0 -- -- 62
2020-10-04 12:00:00 11.3 49 Oeste 76 Oeste 0 -- -- 68
2020-10-04 11:00:00 10.3 46 Oeste 68 Oeste 0 -- -- 72
2020-10-04 10:00:00 7.5 19 Sudoeste 32 Sur 0 -- -- 83
2020-10-04 09:00:00 6.6 3 Sur 8 Sudeste 0 -- -- 84
2020-10-04 08:00:00 6.5 9 Sur 19 Noroeste 0 -- -- 81
2020-10-04 07:00:00 7.5 9 Oeste 27 Oeste 0 -- -- 81
2020-10-04 06:00:00 7.1 20 Oeste 33 Noroeste 0 -- -- 82
2020-10-04 05:00:00 8.1 26 Oeste 44 Oeste 0 -- -- 78
2020-10-04 04:00:00 8.6 25 Oeste 35 Noroeste 0 -- -- 71
2020-10-04 03:00:00 8.7 20 Oeste 33 Oeste 0 -- -- 70
2020-10-04 02:00:00 8.6 24 Oeste 45 Oeste 0 -- -- 72
2020-10-04 01:00:00 9 24 Oeste 42 Oeste 0 -- -- 68
2020-10-04 00:00:00 9.3 31 Oeste 46 Oeste 0 -- -- 63
2020-10-03 23:00:00 9.5 23 Oeste 47 Oeste 0 -- -- 60
2020-10-03 22:00:00 9.6 29 Oeste 44 Oeste 0 -- -- 58
2020-10-03 21:00:00 9.1 19 Oeste 34 Oeste 0 -- -- 59
2020-10-03 20:00:00 9.6 26 Oeste 46 Oeste 0 -- -- 57
2020-10-03 19:00:00 11 33 Oeste 53 Oeste 0 -- -- 53
2020-10-03 18:00:00 10.8 31 Oeste 47 Oeste 0 -- -- 57
2020-10-03 17:00:00 10.9 35 Oeste 50 Oeste 0 -- -- 58
2020-10-03 16:00:00 10.7 35 Oeste 51 Oeste 0 -- -- 59
2020-10-03 15:00:00 10 35 Noroeste 53 Noroeste 0 -- -- 60
2020-10-03 14:00:00 10 35 Noroeste 54 Noroeste 0 -- -- 60
2020-10-03 13:00:00 9.3 39 Oeste 56 Oeste 0 -- -- 63
2020-10-03 12:00:00 8.3 33 Oeste 55 Oeste 0 -- -- 65
2020-10-03 11:00:00 6.7 30 Noroeste 61 Oeste 0 -- -- 75
2020-10-03 10:00:00 5.8 40 Noroeste 55 Oeste 0 -- -- 77
2020-10-03 09:00:00 4.6 32 Noroeste 55 Oeste 0 -- -- 80
2020-10-03 08:00:00 4.3 35 Oeste 52 Oeste 0 -- -- 81
2020-10-03 07:00:00 4.5 29 Oeste 52 Oeste 0 -- -- 82
2020-10-03 06:00:00 4.7 45 Oeste 62 Oeste 0 -- -- 80
2020-10-03 05:00:00 4.8 33 Oeste 63 Oeste 0 -- -- 81
2020-10-03 04:00:00 5.1 46 Oeste 64 Oeste 0 -- -- 82
2020-10-03 03:00:00 5.2 37 Oeste 58 Oeste 0 -- -- 80
2020-10-03 02:00:00 5.5 30 Oeste 46 Oeste 0 -- -- 78
2020-10-03 01:00:00 5.2 29 Oeste 46 Oeste 0 -- -- 79
2020-10-03 00:00:00 5.9 27 Oeste 46 Oeste 0 -- -- 76
2020-10-02 23:00:00 6.1 37 Noroeste 56 Noroeste 0 -- -- 70
2020-10-02 22:00:00 6.2 25 Oeste 50 Oeste 0 -- -- 68
2020-10-02 21:00:00 6.8 32 Oeste 58 Oeste 0 -- -- 66
2020-10-02 20:00:00 7.4 30 Noroeste 71 Noroeste 0 -- -- 63
2020-10-02 19:00:00 9.3 41 Noroeste 66 Noroeste 0 -- -- 53
2020-10-02 18:00:00 9.5 54 Noroeste 77 Oeste 0 -- -- 53
2020-10-02 17:00:00 9.4 59 Noroeste 90 Noroeste 0.2 -- -- 54
2020-10-02 16:00:00 9.8 60 Noroeste 84 Oeste 0 -- -- 57
2020-10-02 15:00:00 9.7 53 Noroeste 82 Oeste 0 -- -- 61
2020-10-02 14:00:00 9 49 Oeste 76 Oeste 0.2 -- -- 73
2020-10-02 13:00:00 6.4 40 Oeste 71 Noroeste 0.4 -- -- 89
2020-10-02 12:00:00 6.5 48 Noroeste 72 Noroeste 3.4 -- -- 90
2020-10-02 11:00:00 8 36 Noroeste 80 Oeste 3.8 -- -- 91
2020-10-02 10:00:00 9.2 55 Oeste 85 Oeste 5 -- -- 87
2020-10-02 09:00:00 9.6 39 Sudoeste 64 Sudoeste 3.8 -- -- 94
2020-10-02 08:00:00 9.4 47 Sudoeste 67 Sudoeste 0.8 -- -- 93
2020-10-02 07:00:00 9.9 46 Sudoeste 68 Sudoeste 0.6 -- -- 92
2020-10-02 06:00:00 10.3 39 Sudoeste 65 Sudoeste 1 -- -- 89
2020-10-02 05:00:00 11.9 40 Sudoeste 60 Sudoeste 0 -- -- 80
2020-10-02 04:00:00 13 34 Sudoeste 56 Sudoeste 0 -- -- 69
2020-10-02 03:00:00 13.8 28 Oeste 44 Oeste 0 -- -- 62
2020-10-02 02:00:00 13.9 25 Oeste 35 Sudoeste 0 -- -- 60
2020-10-02 01:00:00 13.3 12 Oeste 26 Oeste 0 -- -- 59
2020-10-02 00:00:00 12.2 2 Norte 8 Norte 0 -- -- 59
2020-10-01 23:00:00 13 9 Oeste 33 Oeste 0 -- -- 57
2020-10-01 22:00:00 13.4 23 Noroeste 34 Oeste 0 -- -- 58
2020-10-01 21:00:00 13.6 20 Oeste 33 Oeste 0 -- -- 58
2020-10-01 20:00:00 14.6 24 Oeste 36 Oeste 0 -- -- 56
2020-10-01 19:00:00 15.8 23 Oeste 38 Noroeste 0 -- -- 56
2020-10-01 18:00:00 16.1 27 Noroeste 45 Noroeste 0 -- -- 53
2020-10-01 17:00:00 17 25 Noroeste 35 Noroeste 0 -- -- 54
2020-10-01 16:00:00 15.7 25 Noroeste 34 Oeste 0 -- -- 62
2020-10-01 15:00:00 13.9 24 Noroeste 48 Noroeste 0 -- -- 72
2020-10-01 14:00:00 12.7 35 Noroeste 47 Noroeste 0 -- -- 77
2020-10-01 13:00:00 13 28 Noroeste 40 Oeste 0 -- -- 77
2020-10-01 12:00:00 13.5 30 Noroeste 39 Noroeste 0 -- -- 75
2020-10-01 11:00:00 13 18 Noroeste 32 Oeste 0 -- -- 75
2020-10-01 10:00:00 12.7 23 Noroeste 33 Oeste 0 -- -- 74
2020-10-01 09:00:00 10.7 13 Noroeste 30 Noroeste 0 -- -- 81
2020-10-01 08:00:00 10.8 12 Noroeste 22 Noroeste 0 -- -- 81
2020-10-01 07:00:00 11.1 12 Noroeste 17 Oeste 0 -- -- 80
2020-10-01 06:00:00 12 5 Noroeste 15 Oeste 0 -- -- 77
2020-10-01 05:00:00 12 6 Noroeste 18 Oeste 0 -- -- 70
2020-10-01 04:00:00 12.4 6 Noroeste 12 Oeste 0 -- -- 65
2020-10-01 03:00:00 14.4 8 Oeste 27 Noroeste 0 -- -- 57
2020-10-01 02:00:00 13 8 Noroeste 23 Noroeste 0 -- -- 58
2020-10-01 01:00:00 12.5 3 Noroeste 10 Oeste 0 -- -- 60
2020-10-01 00:00:00 13.6 4 Oeste 6 Oeste 0 -- -- 57